sensor_id;sensor_type;location;lat;lon;timestamp;P1;durP1;ratioP1;P2;durP2;ratioP2
85054;SDS011;75391;48.300;16.352;2024-01-15T00:01:09;19.08;;;7.50;;
85054;SDS011;75391;48.300;16.352;2024-01-15T00:03:34;20.20;;;8.40;;
85054;SDS011;75391;48.300;16.352;2024-01-15T00:06:00;16.77;;;6.90;;
85054;SDS011;75391;48.300;16.352;2024-01-15T00:08:25;18.30;;;7.72;;
85054;SDS011;75391;48.300;16.352;2024-01-15T00:10:51;21.05;;;8.05;;
85054;SDS011;75391;48.300;16.352;2024-01-15T00:13:16;21.05;;;7.63;;
85054;SDS011;75391;48.300;16.352;2024-01-15T00:15:42;19.48;;;8.02;;
85054;SDS011;75391;48.300;16.352;2024-01-15T00:18:07;18.52;;;7.55;;
85054;SDS011;75391;48.300;16.352;2024-01-15T00:20:32;18.48;;;7.30;;
85054;SDS011;75391;48.300;16.352;2024-01-15T00:22:58;20.77;;;7.55;;
85054;SDS011;75391;48.300;16.352;2024-01-15T00:25:24;19.08;;;7.68;;
85054;SDS011;75391;48.300;16.352;2024-01-15T00:27:49;18.85;;;7.82;;
85054;SDS011;75391;48.300;16.352;2024-01-15T00:30:14;22.05;;;8.20;;
85054;SDS011;75391;48.300;16.352;2024-01-15T00:32:40;19.70;;;8.07;;
85054;SDS011;75391;48.300;16.352;2024-01-15T00:35:05;22.52;;;8.23;;
85054;SDS011;75391;48.300;16.352;2024-01-15T00:37:31;19.27;;;7.82;;
85054;SDS011;75391;48.300;16.352;2024-01-15T00:39:56;20.33;;;7.47;;
85054;SDS011;75391;48.300;16.352;2024-01-15T00:42:22;19.40;;;8.15;;
85054;SDS011;75391;48.300;16.352;2024-01-15T00:44:47;20.55;;;7.97;;
85054;SDS011;75391;48.300;16.352;2024-01-15T00:47:13;20.50;;;8.60;;
85054;SDS011;75391;48.300;16.352;2024-01-15T00:49:38;23.75;;;8.93;;
85054;SDS011;75391;48.300;16.352;2024-01-15T00:52:03;20.45;;;7.85;;
85054;SDS011;75391;48.300;16.352;2024-01-15T00:54:29;18.95;;;8.13;;
85054;SDS011;75391;48.300;16.352;2024-01-15T00:56:54;20.58;;;7.82;;
85054;SDS011;75391;48.300;16.352;2024-01-15T00:59:20;20.70;;;7.95;;
85054;SDS011;75391;48.300;16.352;2024-01-15T01:01:46;22.23;;;8.68;;
85054;SDS011;75391;48.300;16.352;2024-01-15T01:04:11;20.98;;;8.25;;
85054;SDS011;75391;48.300;16.352;2024-01-15T01:06:37;19.52;;;7.78;;
85054;SDS011;75391;48.300;16.352;2024-01-15T01:09:03;20.25;;;7.85;;
85054;SDS011;75391;48.300;16.352;2024-01-15T01:11:29;20.23;;;8.63;;
85054;SDS011;75391;48.300;16.352;2024-01-15T01:13:54;19.85;;;8.13;;
85054;SDS011;75391;48.300;16.352;2024-01-15T01:16:20;19.33;;;7.75;;
85054;SDS011;75391;48.300;16.352;2024-01-15T01:18:45;19.60;;;8.10;;
85054;SDS011;75391;48.300;16.352;2024-01-15T01:21:10;21.42;;;8.07;;
85054;SDS011;75391;48.300;16.352;2024-01-15T01:23:36;19.77;;;8.27;;
85054;SDS011;75391;48.300;16.352;2024-01-15T01:26:01;21.77;;;8.60;;
85054;SDS011;75391;48.300;16.352;2024-01-15T01:28:27;23.90;;;9.00;;
85054;SDS011;75391;48.300;16.352;2024-01-15T01:30:53;18.60;;;7.95;;
85054;SDS011;75391;48.300;16.352;2024-01-15T01:33:18;19.83;;;8.50;;
85054;SDS011;75391;48.300;16.352;2024-01-15T01:35:44;19.13;;;8.38;;
85054;SDS011;75391;48.300;16.352;2024-01-15T01:38:09;22.30;;;8.52;;
85054;SDS011;75391;48.300;16.352;2024-01-15T01:40:34;20.70;;;8.18;;
85054;SDS011;75391;48.300;16.352;2024-01-15T01:43:00;21.48;;;8.70;;
85054;SDS011;75391;48.300;16.352;2024-01-15T01:45:27;20.55;;;8.63;;
85054;SDS011;75391;48.300;16.352;2024-01-15T01:47:53;20.60;;;8.10;;
85054;SDS011;75391;48.300;16.352;2024-01-15T01:50:18;18.58;;;7.25;;
85054;SDS011;75391;48.300;16.352;2024-01-15T01:52:44;21.08;;;8.25;;
85054;SDS011;75391;48.300;16.352;2024-01-15T01:55:10;21.08;;;8.10;;
85054;SDS011;75391;48.300;16.352;2024-01-15T01:57:36;21.48;;;7.90;;
85054;SDS011;75391;48.300;16.352;2024-01-15T02:00:02;20.75;;;7.78;;
85054;SDS011;75391;48.300;16.352;2024-01-15T02:02:36;20.65;;;8.23;;
85054;SDS011;75391;48.300;16.352;2024-01-15T02:05:03;18.42;;;7.65;;
85054;SDS011;75391;48.300;16.352;2024-01-15T02:07:29;19.95;;;7.55;;
85054;SDS011;75391;48.300;16.352;2024-01-15T02:09:55;20.38;;;7.90;;
85054;SDS011;75391;48.300;16.352;2024-01-15T02:12:21;20.33;;;8.45;;
85054;SDS011;75391;48.300;16.352;2024-01-15T02:14:46;21.00;;;8.75;;
85054;SDS011;75391;48.300;16.352;2024-01-15T02:17:12;19.60;;;8.05;;
85054;SDS011;75391;48.300;16.352;2024-01-15T02:19:37;21.77;;;8.18;;
85054;SDS011;75391;48.300;16.352;2024-01-15T02:22:03;17.27;;;7.63;;
85054;SDS011;75391;48.300;16.352;2024-01-15T02:24:28;20.02;;;8.05;;
85054;SDS011;75391;48.300;16.352;2024-01-15T02:26:54;20.65;;;7.93;;
85054;SDS011;75391;48.300;16.352;2024-01-15T02:29:19;20.10;;;8.35;;
85054;SDS011;75391;48.300;16.352;2024-01-15T02:31:45;22.02;;;8.40;;
85054;SDS011;75391;48.300;16.352;2024-01-15T02:34:10;19.05;;;8.27;;
85054;SDS011;75391;48.300;16.352;2024-01-15T02:36:35;20.33;;;8.40;;
85054;SDS011;75391;48.300;16.352;2024-01-15T02:39:01;21.42;;;8.50;;
85054;SDS011;75391;48.300;16.352;2024-01-15T02:41:26;19.02;;;6.80;;
85054;SDS011;75391;48.300;16.352;2024-01-15T02:43:52;16.60;;;6.93;;
85054;SDS011;75391;48.300;16.352;2024-01-15T02:46:17;17.10;;;6.60;;
85054;SDS011;75391;48.300;16.352;2024-01-15T02:48:43;16.80;;;6.90;;
85054;SDS011;75391;48.300;16.352;2024-01-15T02:51:08;18.98;;;7.20;;
85054;SDS011;75391;48.300;16.352;2024-01-15T02:53:35;17.00;;;6.38;;
85054;SDS011;75391;48.300;16.352;2024-01-15T02:56:01;16.52;;;6.63;;
85054;SDS011;75391;48.300;16.352;2024-01-15T02:58:26;16.13;;;6.45;;
85054;SDS011;75391;48.300;16.352;2024-01-15T03:00:52;19.17;;;7.40;;
85054;SDS011;75391;48.300;16.352;2024-01-15T03:03:17;18.13;;;6.85;;
85054;SDS011;75391;48.300;16.352;2024-01-15T03:05:42;18.25;;;7.32;;
85054;SDS011;75391;48.300;16.352;2024-01-15T03:08:08;18.93;;;7.73;;
85054;SDS011;75391;48.300;16.352;2024-01-15T03:10:33;19.92;;;7.25;;
85054;SDS011;75391;48.300;16.352;2024-01-15T03:12:59;19.75;;;7.78;;
85054;SDS011;75391;48.300;16.352;2024-01-15T03:15:24;19.90;;;8.07;;
85054;SDS011;75391;48.300;16.352;2024-01-15T03:17:49;20.10;;;7.68;;
85054;SDS011;75391;48.300;16.352;2024-01-15T03:20:15;20.55;;;7.40;;
85054;SDS011;75391;48.300;16.352;2024-01-15T03:22:40;20.05;;;7.90;;
85054;SDS011;75391;48.300;16.352;2024-01-15T03:25:06;19.73;;;7.77;;
85054;SDS011;75391;48.300;16.352;2024-01-15T03:27:32;19.35;;;7.78;;
85054;SDS011;75391;48.300;16.352;2024-01-15T03:29:57;16.08;;;6.05;;
85054;SDS011;75391;48.300;16.352;2024-01-15T03:32:23;19.83;;;7.63;;
85054;SDS011;75391;48.300;16.352;2024-01-15T03:34:48;18.77;;;7.30;;
85054;SDS011;75391;48.300;16.352;2024-01-15T03:37:13;18.93;;;7.43;;
85054;SDS011;75391;48.300;16.352;2024-01-15T03:39:39;19.73;;;7.22;;
85054;SDS011;75391;48.300;16.352;2024-01-15T03:42:04;16.15;;;6.50;;
85054;SDS011;75391;48.300;16.352;2024-01-15T03:44:31;16.38;;;6.68;;
85054;SDS011;75391;48.300;16.352;2024-01-15T03:46:56;15.02;;;6.15;;
85054;SDS011;75391;48.300;16.352;2024-01-15T03:49:21;13.33;;;5.93;;
85054;SDS011;75391;48.300;16.352;2024-01-15T03:51:47;13.77;;;6.10;;
85054;SDS011;75391;48.300;16.352;2024-01-15T03:54:12;15.33;;;6.17;;
85054;SDS011;75391;48.300;16.352;2024-01-15T03:56:38;14.63;;;5.97;;
85054;SDS011;75391;48.300;16.352;2024-01-15T03:59:03;17.27;;;6.50;;
85054;SDS011;75391;48.300;16.352;2024-01-15T04:01:28;19.53;;;7.00;;
85054;SDS011;75391;48.300;16.352;2024-01-15T04:03:54;18.40;;;7.47;;
85054;SDS011;75391;48.300;16.352;2024-01-15T04:06:19;18.42;;;7.40;;
85054;SDS011;75391;48.300;16.352;2024-01-15T04:08:45;18.93;;;7.90;;
85054;SDS011;75391;48.300;16.352;2024-01-15T04:11:10;18.80;;;7.80;;
85054;SDS011;75391;48.300;16.352;2024-01-15T04:13:36;17.97;;;6.63;;
85054;SDS011;75391;48.300;16.352;2024-01-15T04:16:01;19.15;;;7.75;;
85054;SDS011;75391;48.300;16.352;2024-01-15T04:18:27;21.75;;;7.97;;
85054;SDS011;75391;48.300;16.352;2024-01-15T04:20:52;19.63;;;7.65;;
85054;SDS011;75391;48.300;16.352;2024-01-15T04:23:17;21.10;;;7.90;;
85054;SDS011;75391;48.300;16.352;2024-01-15T04:25:43;19.13;;;7.55;;
85054;SDS011;75391;48.300;16.352;2024-01-15T04:28:09;20.03;;;8.27;;
85054;SDS011;75391;48.300;16.352;2024-01-15T04:30:34;18.88;;;7.85;;
85054;SDS011;75391;48.300;16.352;2024-01-15T04:33:00;22.55;;;9.13;;
85054;SDS011;75391;48.300;16.352;2024-01-15T04:35:25;21.70;;;8.80;;
85054;SDS011;75391;48.300;16.352;2024-01-15T04:37:50;19.97;;;8.40;;
85054;SDS011;75391;48.300;16.352;2024-01-15T04:40:16;21.23;;;8.40;;
85054;SDS011;75391;48.300;16.352;2024-01-15T04:42:42;24.98;;;10.02;;
85054;SDS011;75391;48.300;16.352;2024-01-15T04:45:07;23.63;;;8.40;;
85054;SDS011;75391;48.300;16.352;2024-01-15T04:47:33;21.92;;;8.77;;
85054;SDS011;75391;48.300;16.352;2024-01-15T04:49:59;20.15;;;8.57;;
85054;SDS011;75391;48.300;16.352;2024-01-15T04:52:24;18.63;;;8.02;;
85054;SDS011;75391;48.300;16.352;2024-01-15T04:54:49;23.45;;;8.50;;
85054;SDS011;75391;48.300;16.352;2024-01-15T04:57:15;21.53;;;8.20;;
85054;SDS011;75391;48.300;16.352;2024-01-15T04:59:40;22.45;;;8.90;;
85054;SDS011;75391;48.300;16.352;2024-01-15T05:02:06;20.85;;;8.55;;
85054;SDS011;75391;48.300;16.352;2024-01-15T05:04:31;21.40;;;9.02;;
85054;SDS011;75391;48.300;16.352;2024-01-15T05:06:57;23.20;;;9.70;;
85054;SDS011;75391;48.300;16.352;2024-01-15T05:09:22;24.52;;;9.55;;
85054;SDS011;75391;48.300;16.352;2024-01-15T05:11:47;20.95;;;8.73;;
85054;SDS011;75391;48.300;16.352;2024-01-15T05:14:13;23.55;;;9.48;;
85054;SDS011;75391;48.300;16.352;2024-01-15T05:16:39;21.45;;;8.88;;
85054;SDS011;75391;48.300;16.352;2024-01-15T05:19:04;24.60;;;9.73;;
85054;SDS011;75391;48.300;16.352;2024-01-15T05:21:30;22.23;;;9.17;;
85054;SDS011;75391;48.300;16.352;2024-01-15T05:23:55;23.95;;;9.45;;
85054;SDS011;75391;48.300;16.352;2024-01-15T05:26:20;24.20;;;9.23;;
85054;SDS011;75391;48.300;16.352;2024-01-15T05:28:46;25.00;;;9.30;;
85054;SDS011;75391;48.300;16.352;2024-01-15T05:31:11;23.40;;;9.27;;
85054;SDS011;75391;48.300;16.352;2024-01-15T05:33:37;22.07;;;8.97;;
85054;SDS011;75391;48.300;16.352;2024-01-15T05:36:02;21.92;;;9.20;;
85054;SDS011;75391;48.300;16.352;2024-01-15T05:38:28;21.80;;;8.95;;
85054;SDS011;75391;48.300;16.352;2024-01-15T05:40:53;23.47;;;8.90;;
85054;SDS011;75391;48.300;16.352;2024-01-15T05:43:19;22.00;;;8.80;;
85054;SDS011;75391;48.300;16.352;2024-01-15T05:45:44;22.05;;;8.93;;
85054;SDS011;75391;48.300;16.352;2024-01-15T05:48:10;23.08;;;9.02;;
85054;SDS011;75391;48.300;16.352;2024-01-15T05:50:36;22.42;;;9.25;;
85054;SDS011;75391;48.300;16.352;2024-01-15T05:53:01;22.33;;;8.40;;
85054;SDS011;75391;48.300;16.352;2024-01-15T05:55:26;21.48;;;8.75;;
85054;SDS011;75391;48.300;16.352;2024-01-15T05:57:52;23.17;;;9.23;;
85054;SDS011;75391;48.300;16.352;2024-01-15T06:00:17;20.42;;;8.68;;
85054;SDS011;75391;48.300;16.352;2024-01-15T06:02:43;17.92;;;7.47;;
85054;SDS011;75391;48.300;16.352;2024-01-15T06:05:08;21.83;;;8.40;;
85054;SDS011;75391;48.300;16.352;2024-01-15T06:07:34;19.35;;;8.13;;
85054;SDS011;75391;48.300;16.352;2024-01-15T06:10:00;19.27;;;7.78;;
85054;SDS011;75391;48.300;16.352;2024-01-15T06:12:25;22.25;;;8.18;;
85054;SDS011;75391;48.300;16.352;2024-01-15T06:14:50;21.60;;;8.32;;
85054;SDS011;75391;48.300;16.352;2024-01-15T06:17:16;18.35;;;7.50;;
85054;SDS011;75391;48.300;16.352;2024-01-15T06:19:41;19.00;;;7.50;;
85054;SDS011;75391;48.300;16.352;2024-01-15T06:22:07;16.33;;;7.03;;
85054;SDS011;75391;48.300;16.352;2024-01-15T06:24:32;16.70;;;6.68;;
85054;SDS011;75391;48.300;16.352;2024-01-15T06:26:58;16.40;;;6.88;;
85054;SDS011;75391;48.300;16.352;2024-01-15T06:29:25;18.00;;;7.32;;
85054;SDS011;75391;48.300;16.352;2024-01-15T06:31:51;17.25;;;6.45;;
85054;SDS011;75391;48.300;16.352;2024-01-15T06:34:16;15.18;;;6.65;;
85054;SDS011;75391;48.300;16.352;2024-01-15T06:36:42;17.25;;;7.00;;
85054;SDS011;75391;48.300;16.352;2024-01-15T06:39:08;16.00;;;6.28;;
85054;SDS011;75391;48.300;16.352;2024-01-15T06:41:33;17.07;;;6.43;;
85054;SDS011;75391;48.300;16.352;2024-01-15T06:43:58;17.23;;;6.60;;
85054;SDS011;75391;48.300;16.352;2024-01-15T06:46:24;17.63;;;7.15;;
85054;SDS011;75391;48.300;16.352;2024-01-15T06:48:49;16.73;;;6.60;;
85054;SDS011;75391;48.300;16.352;2024-01-15T06:51:15;18.77;;;8.00;;
85054;SDS011;75391;48.300;16.352;2024-01-15T06:53:41;20.10;;;7.60;;
85054;SDS011;75391;48.300;16.352;2024-01-15T06:56:07;19.08;;;7.28;;
85054;SDS011;75391;48.300;16.352;2024-01-15T06:58:33;18.52;;;7.82;;
85054;SDS011;75391;48.300;16.352;2024-01-15T07:00:58;18.70;;;7.50;;
85054;SDS011;75391;48.300;16.352;2024-01-15T07:03:23;19.40;;;8.13;;
85054;SDS011;75391;48.300;16.352;2024-01-15T07:05:49;20.00;;;7.85;;
85054;SDS011;75391;48.300;16.352;2024-01-15T07:08:14;20.95;;;8.23;;
85054;SDS011;75391;48.300;16.352;2024-01-15T07:10:40;19.58;;;7.88;;
85054;SDS011;75391;48.300;16.352;2024-01-15T07:13:05;17.53;;;7.50;;
85054;SDS011;75391;48.300;16.352;2024-01-15T07:15:32;18.25;;;7.60;;
85054;SDS011;75391;48.300;16.352;2024-01-15T07:17:57;19.25;;;8.18;;
85054;SDS011;75391;48.300;16.352;2024-01-15T07:20:23;19.23;;;8.63;;
85054;SDS011;75391;48.300;16.352;2024-01-15T07:22:48;19.60;;;7.75;;
85054;SDS011;75391;48.300;16.352;2024-01-15T07:25:14;17.20;;;7.33;;
85054;SDS011;75391;48.300;16.352;2024-01-15T07:27:40;18.95;;;8.18;;
85054;SDS011;75391;48.300;16.352;2024-01-15T07:30:06;18.60;;;7.53;;
85054;SDS011;75391;48.300;16.352;2024-01-15T07:32:32;18.75;;;7.55;;
85054;SDS011;75391;48.300;16.352;2024-01-15T07:34:57;22.40;;;8.00;;
85054;SDS011;75391;48.300;16.352;2024-01-15T07:37:22;18.05;;;7.10;;
85054;SDS011;75391;48.300;16.352;2024-01-15T07:39:48;19.80;;;6.90;;
85054;SDS011;75391;48.300;16.352;2024-01-15T07:42:14;19.27;;;7.65;;
85054;SDS011;75391;48.300;16.352;2024-01-15T07:44:39;16.13;;;6.85;;
85054;SDS011;75391;48.300;16.352;2024-01-15T07:47:05;18.13;;;7.55;;
85054;SDS011;75391;48.300;16.352;2024-01-15T07:49:30;19.38;;;7.32;;
85054;SDS011;75391;48.300;16.352;2024-01-15T07:51:56;17.00;;;6.57;;
85054;SDS011;75391;48.300;16.352;2024-01-15T07:54:21;16.73;;;6.97;;
85054;SDS011;75391;48.300;16.352;2024-01-15T07:56:56;20.00;;;7.90;;
85054;SDS011;75391;48.300;16.352;2024-01-15T07:59:22;21.02;;;8.45;;
85054;SDS011;75391;48.300;16.352;2024-01-15T08:01:48;16.75;;;6.80;;
85054;SDS011;75391;48.300;16.352;2024-01-15T08:04:14;17.27;;;6.82;;
85054;SDS011;75391;48.300;16.352;2024-01-15T08:06:40;16.52;;;6.90;;
85054;SDS011;75391;48.300;16.352;2024-01-15T08:09:05;18.63;;;6.70;;
85054;SDS011;75391;48.300;16.352;2024-01-15T08:11:31;17.40;;;6.85;;
85054;SDS011;75391;48.300;16.352;2024-01-15T08:13:56;16.38;;;6.78;;
85054;SDS011;75391;48.300;16.352;2024-01-15T08:16:22;19.73;;;7.43;;
85054;SDS011;75391;48.300;16.352;2024-01-15T08:18:48;17.50;;;6.65;;
85054;SDS011;75391;48.300;16.352;2024-01-15T08:21:13;16.52;;;6.68;;
85054;SDS011;75391;48.300;16.352;2024-01-15T08:23:39;17.42;;;7.25;;
85054;SDS011;75391;48.300;16.352;2024-01-15T08:26:04;17.02;;;6.75;;
85054;SDS011;75391;48.300;16.352;2024-01-15T08:28:30;16.45;;;6.20;;
85054;SDS011;75391;48.300;16.352;2024-01-15T08:30:55;18.08;;;6.70;;
85054;SDS011;75391;48.300;16.352;2024-01-15T08:33:21;14.65;;;6.50;;
85054;SDS011;75391;48.300;16.352;2024-01-15T08:35:46;16.13;;;7.15;;
85054;SDS011;75391;48.300;16.352;2024-01-15T08:38:12;17.25;;;6.60;;
85054;SDS011;75391;48.300;16.352;2024-01-15T08:40:37;15.25;;;6.47;;
85054;SDS011;75391;48.300;16.352;2024-01-15T08:43:03;14.82;;;6.40;;
85054;SDS011;75391;48.300;16.352;2024-01-15T08:45:28;17.02;;;6.47;;
85054;SDS011;75391;48.300;16.352;2024-01-15T08:47:53;15.38;;;5.97;;
85054;SDS011;75391;48.300;16.352;2024-01-15T08:50:19;14.60;;;6.18;;
85054;SDS011;75391;48.300;16.352;2024-01-15T08:52:44;14.10;;;6.17;;
85054;SDS011;75391;48.300;16.352;2024-01-15T08:55:10;16.93;;;7.13;;
85054;SDS011;75391;48.300;16.352;2024-01-15T08:57:35;14.13;;;6.05;;
85054;SDS011;75391;48.300;16.352;2024-01-15T09:00:00;16.43;;;6.43;;
85054;SDS011;75391;48.300;16.352;2024-01-15T09:02:26;15.50;;;5.95;;
85054;SDS011;75391;48.300;16.352;2024-01-15T09:04:51;13.77;;;5.97;;
85054;SDS011;75391;48.300;16.352;2024-01-15T09:07:16;16.50;;;6.10;;
85054;SDS011;75391;48.300;16.352;2024-01-15T09:09:42;14.88;;;5.85;;
85054;SDS011;75391;48.300;16.352;2024-01-15T09:12:07;15.68;;;6.13;;
85054;SDS011;75391;48.300;16.352;2024-01-15T09:14:33;15.07;;;6.05;;
85054;SDS011;75391;48.300;16.352;2024-01-15T09:16:58;12.73;;;5.50;;
85054;SDS011;75391;48.300;16.352;2024-01-15T09:19:24;14.13;;;5.83;;
85054;SDS011;75391;48.300;16.352;2024-01-15T09:21:49;13.90;;;5.70;;
85054;SDS011;75391;48.300;16.352;2024-01-15T09:24:15;13.95;;;5.72;;
85054;SDS011;75391;48.300;16.352;2024-01-15T09:26:40;12.77;;;5.10;;
85054;SDS011;75391;48.300;16.352;2024-01-15T09:29:05;12.40;;;5.28;;
85054;SDS011;75391;48.300;16.352;2024-01-15T09:31:31;14.85;;;5.53;;
85054;SDS011;75391;48.300;16.352;2024-01-15T09:33:56;13.88;;;5.75;;
85054;SDS011;75391;48.300;16.352;2024-01-15T09:36:22;13.95;;;5.60;;
85054;SDS011;75391;48.300;16.352;2024-01-15T09:38:47;14.25;;;5.65;;
85054;SDS011;75391;48.300;16.352;2024-01-15T09:41:13;11.55;;;5.00;;
85054;SDS011;75391;48.300;16.352;2024-01-15T09:43:39;12.50;;;4.88;;
85054;SDS011;75391;48.300;16.352;2024-01-15T09:46:05;13.18;;;4.93;;
85054;SDS011;75391;48.300;16.352;2024-01-15T09:48:31;11.73;;;4.90;;
85054;SDS011;75391;48.300;16.352;2024-01-15T09:50:57;12.25;;;5.25;;
85054;SDS011;75391;48.300;16.352;2024-01-15T09:53:22;12.57;;;5.00;;
85054;SDS011;75391;48.300;16.352;2024-01-15T09:55:50;12.60;;;4.68;;
85054;SDS011;75391;48.300;16.352;2024-01-15T09:58:15;10.82;;;4.63;;
85054;SDS011;75391;48.300;16.352;2024-01-15T10:00:41;13.60;;;5.07;;
85054;SDS011;75391;48.300;16.352;2024-01-15T10:03:09;11.60;;;4.60;;
85054;SDS011;75391;48.300;16.352;2024-01-15T10:05:35;10.95;;;4.65;;
85054;SDS011;75391;48.300;16.352;2024-01-15T10:08:00;10.40;;;4.53;;
85054;SDS011;75391;48.300;16.352;2024-01-15T10:10:26;11.90;;;4.82;;
85054;SDS011;75391;48.300;16.352;2024-01-15T10:12:51;11.18;;;5.07;;
85054;SDS011;75391;48.300;16.352;2024-01-15T10:15:21;10.18;;;4.55;;
85054;SDS011;75391;48.300;16.352;2024-01-15T10:17:47;9.25;;;4.30;;
85054;SDS011;75391;48.300;16.352;2024-01-15T10:20:13;11.80;;;5.15;;
85054;SDS011;75391;48.300;16.352;2024-01-15T10:22:41;11.65;;;4.38;;
85054;SDS011;75391;48.300;16.352;2024-01-15T10:25:09;10.38;;;4.45;;
85054;SDS011;75391;48.300;16.352;2024-01-15T10:27:35;10.35;;;3.97;;
85054;SDS011;75391;48.300;16.352;2024-01-15T10:30:01;13.10;;;4.70;;
85054;SDS011;75391;48.300;16.352;2024-01-15T10:32:27;10.55;;;4.47;;
85054;SDS011;75391;48.300;16.352;2024-01-15T10:34:54;10.38;;;4.30;;
85054;SDS011;75391;48.300;16.352;2024-01-15T10:37:20;9.32;;;4.30;;
85054;SDS011;75391;48.300;16.352;2024-01-15T10:39:48;11.18;;;4.55;;
85054;SDS011;75391;48.300;16.352;2024-01-15T10:44:41;9.35;;;4.20;;
85054;SDS011;75391;48.300;16.352;2024-01-15T10:47:06;8.18;;;3.70;;
85054;SDS011;75391;48.300;16.352;2024-01-15T10:49:32;8.88;;;4.20;;
85054;SDS011;75391;48.300;16.352;2024-01-15T10:51:58;10.10;;;3.70;;
85054;SDS011;75391;48.300;16.352;2024-01-15T10:54:23;10.20;;;4.63;;
85054;SDS011;75391;48.300;16.352;2024-01-15T10:56:51;10.27;;;4.10;;
85054;SDS011;75391;48.300;16.352;2024-01-15T10:59:18;10.50;;;4.10;;
85054;SDS011;75391;48.300;16.352;2024-01-15T11:01:45;9.35;;;3.92;;
85054;SDS011;75391;48.300;16.352;2024-01-15T11:04:11;9.23;;;4.07;;
85054;SDS011;75391;48.300;16.352;2024-01-15T11:06:44;10.27;;;3.70;;
85054;SDS011;75391;48.300;16.352;2024-01-15T11:09:11;9.63;;;3.53;;
85054;SDS011;75391;48.300;16.352;2024-01-15T11:11:44;9.95;;;4.10;;
85054;SDS011;75391;48.300;16.352;2024-01-15T11:14:11;10.35;;;3.65;;
85054;SDS011;75391;48.300;16.352;2024-01-15T11:16:55;9.18;;;3.47;;
85054;SDS011;75391;48.300;16.352;2024-01-15T11:19:21;9.05;;;3.70;;
85054;SDS011;75391;48.300;16.352;2024-01-15T11:21:47;10.63;;;3.90;;
85054;SDS011;75391;48.300;16.352;2024-01-15T11:24:32;8.60;;;3.75;;
85054;SDS011;75391;48.300;16.352;2024-01-15T11:27:03;8.63;;;3.65;;
85054;SDS011;75391;48.300;16.352;2024-01-15T11:29:33;10.07;;;3.80;;
85054;SDS011;75391;48.300;16.352;2024-01-15T11:37:19;8.98;;;3.58;;
85054;SDS011;75391;48.300;16.352;2024-01-15T11:39:45;8.10;;;3.55;;
85054;SDS011;75391;48.300;16.352;2024-01-15T11:42:11;8.68;;;3.55;;
85054;SDS011;75391;48.300;16.352;2024-01-15T11:44:37;8.32;;;3.63;;
85054;SDS011;75391;48.300;16.352;2024-01-15T11:47:04;7.57;;;3.20;;
85054;SDS011;75391;48.300;16.352;2024-01-15T11:52:09;8.00;;;3.20;;
85054;SDS011;75391;48.300;16.352;2024-01-15T11:54:37;8.77;;;4.13;;
85054;SDS011;75391;48.300;16.352;2024-01-15T11:57:08;7.88;;;3.40;;
85054;SDS011;75391;48.300;16.352;2024-01-15T11:59:40;8.98;;;3.25;;
85054;SDS011;75391;48.300;16.352;2024-01-15T12:02:06;8.80;;;3.85;;
85054;SDS011;75391;48.300;16.352;2024-01-15T12:04:32;10.77;;;3.40;;
85054;SDS011;75391;48.300;16.352;2024-01-15T12:06:57;8.90;;;3.92;;
85054;SDS011;75391;48.300;16.352;2024-01-15T12:09:23;8.15;;;3.40;;
85054;SDS011;75391;48.300;16.352;2024-01-15T12:11:51;8.18;;;3.60;;
85054;SDS011;75391;48.300;16.352;2024-01-15T12:14:26;6.88;;;3.17;;
85054;SDS011;75391;48.300;16.352;2024-01-15T12:16:51;7.30;;;3.40;;
85054;SDS011;75391;48.300;16.352;2024-01-15T12:19:16;9.52;;;4.00;;
85054;SDS011;75391;48.300;16.352;2024-01-15T12:21:42;9.30;;;4.10;;
85054;SDS011;75391;48.300;16.352;2024-01-15T12:24:07;8.85;;;4.05;;
85054;SDS011;75391;48.300;16.352;2024-01-15T12:26:33;9.35;;;4.22;;
85054;SDS011;75391;48.300;16.352;2024-01-15T12:29:01;8.75;;;4.15;;
85054;SDS011;75391;48.300;16.352;2024-01-15T12:31:27;9.82;;;4.10;;
85054;SDS011;75391;48.300;16.352;2024-01-15T12:33:55;9.38;;;4.00;;
85054;SDS011;75391;48.300;16.352;2024-01-15T12:36:21;9.52;;;4.28;;
85054;SDS011;75391;48.300;16.352;2024-01-15T12:38:46;8.18;;;3.67;;
85054;SDS011;75391;48.300;16.352;2024-01-15T12:41:12;8.13;;;3.93;;
85054;SDS011;75391;48.300;16.352;2024-01-15T12:43:37;8.38;;;3.70;;
85054;SDS011;75391;48.300;16.352;2024-01-15T12:46:03;7.95;;;3.50;;
85054;SDS011;75391;48.300;16.352;2024-01-15T12:48:28;8.80;;;3.47;;
85054;SDS011;75391;48.300;16.352;2024-01-15T12:50:55;8.05;;;3.70;;
85054;SDS011;75391;48.300;16.352;2024-01-15T12:53:20;8.93;;;3.60;;
85054;SDS011;75391;48.300;16.352;2024-01-15T12:55:46;8.07;;;3.40;;
85054;SDS011;75391;48.300;16.352;2024-01-15T12:58:11;8.68;;;3.80;;
85054;SDS011;75391;48.300;16.352;2024-01-15T13:00:37;9.57;;;3.95;;
85054;SDS011;75391;48.300;16.352;2024-01-15T13:03:02;9.18;;;3.97;;
85054;SDS011;75391;48.300;16.352;2024-01-15T13:05:28;8.50;;;4.00;;
85054;SDS011;75391;48.300;16.352;2024-01-15T13:07:56;7.18;;;3.67;;
85054;SDS011;75391;48.300;16.352;2024-01-15T13:10:21;11.63;;;4.10;;
85054;SDS011;75391;48.300;16.352;2024-01-15T13:12:47;8.52;;;3.88;;
85054;SDS011;75391;48.300;16.352;2024-01-15T13:15:12;9.63;;;3.35;;
85054;SDS011;75391;48.300;16.352;2024-01-15T13:17:38;7.18;;;3.28;;
85054;SDS011;75391;48.300;16.352;2024-01-15T13:20:04;8.23;;;3.28;;
85054;SDS011;75391;48.300;16.352;2024-01-15T13:22:31;8.65;;;3.13;;
85054;SDS011;75391;48.300;16.352;2024-01-15T13:24:56;9.43;;;3.97;;
85054;SDS011;75391;48.300;16.352;2024-01-15T13:27:21;7.60;;;3.17;;
85054;SDS011;75391;48.300;16.352;2024-01-15T13:29:47;12.82;;;3.00;;
85054;SDS011;75391;48.300;16.352;2024-01-15T13:32:12;7.20;;;3.20;;
85054;SDS011;75391;48.300;16.352;2024-01-15T13:34:46;7.28;;;3.40;;
85054;SDS011;75391;48.300;16.352;2024-01-15T13:37:12;6.22;;;2.95;;
85054;SDS011;75391;48.300;16.352;2024-01-15T13:39:37;7.95;;;3.10;;
85054;SDS011;75391;48.300;16.352;2024-01-15T13:42:02;6.95;;;3.22;;
85054;SDS011;75391;48.300;16.352;2024-01-15T13:44:28;8.23;;;3.60;;
85054;SDS011;75391;48.300;16.352;2024-01-15T13:46:53;8.50;;;3.40;;
85054;SDS011;75391;48.300;16.352;2024-01-15T13:49:19;7.13;;;3.10;;
85054;SDS011;75391;48.300;16.352;2024-01-15T13:51:44;6.65;;;3.05;;
85054;SDS011;75391;48.300;16.352;2024-01-15T13:54:10;7.78;;;3.17;;
85054;SDS011;75391;48.300;16.352;2024-01-15T13:56:35;6.40;;;2.80;;
85054;SDS011;75391;48.300;16.352;2024-01-15T13:59:01;8.18;;;3.20;;
85054;SDS011;75391;48.300;16.352;2024-01-15T14:01:27;8.23;;;3.08;;
85054;SDS011;75391;48.300;16.352;2024-01-15T14:03:53;7.05;;;3.20;;
85054;SDS011;75391;48.300;16.352;2024-01-15T14:06:19;7.32;;;3.03;;
85054;SDS011;75391;48.300;16.352;2024-01-15T14:08:44;7.13;;;2.80;;
85054;SDS011;75391;48.300;16.352;2024-01-15T14:11:10;6.43;;;2.58;;
85054;SDS011;75391;48.300;16.352;2024-01-15T14:13:35;9.13;;;2.83;;
85054;SDS011;75391;48.300;16.352;2024-01-15T14:16:00;7.25;;;3.20;;
85054;SDS011;75391;48.300;16.352;2024-01-15T14:18:26;6.15;;;2.85;;
85054;SDS011;75391;48.300;16.352;2024-01-15T14:20:52;7.57;;;3.10;;
85054;SDS011;75391;48.300;16.352;2024-01-15T14:23:17;6.93;;;3.30;;
85054;SDS011;75391;48.300;16.352;2024-01-15T14:25:43;7.33;;;3.10;;